createdAt,value
2019-04-26T00:01:26.388Z,22.13
2019-04-26T00:03:54.303Z,25.57
2019-04-26T00:06:22.417Z,22.03
2019-04-26T00:08:55.404Z,21.63
2019-04-26T00:11:34.606Z,22.57
2019-04-26T00:14:33.590Z,20.23
2019-04-26T00:17:13.989Z,23.43
2019-04-26T00:19:41.988Z,23.70
2019-04-26T00:22:10.686Z,20.73
2019-04-26T00:24:39.693Z,21.60
2019-04-26T00:27:07.471Z,24.40
2019-04-26T00:29:35.304Z,22.93
2019-04-26T00:32:03.282Z,25.73
2019-04-26T00:34:31.037Z,21.20
2019-04-26T00:36:58.906Z,21.57
2019-04-26T00:39:26.700Z,24.63
2019-04-26T00:41:55.087Z,24.17
2019-04-26T00:44:22.976Z,22.17
2019-04-26T00:46:53.535Z,25.53
2019-04-26T00:49:22.002Z,27.07
2019-04-26T00:51:50.314Z,31.30
2019-04-26T00:54:20.134Z,24.63
2019-04-26T00:56:48.953Z,24.47
2019-04-26T00:59:17.105Z,25.07
2019-04-26T01:01:49.106Z,24.27
2019-04-26T01:04:17.137Z,25.40
2019-04-26T01:06:49.300Z,23.27
2019-04-26T01:09:17.701Z,27.40
2019-04-26T01:11:45.519Z,27.93
2019-04-26T01:14:13.335Z,26.10
2019-04-26T01:16:41.139Z,27.40
2019-04-26T01:19:10.913Z,27.73
2019-04-26T01:21:43.652Z,26.70
2019-04-26T01:24:13.218Z,25.80
2019-04-26T01:26:41.912Z,27.43
2019-04-26T01:29:12.384Z,28.40
2019-04-26T01:31:54.146Z,27.27
2019-04-26T01:34:22.418Z,30.73
2019-04-26T01:36:52.380Z,25.67
2019-04-26T01:39:22.368Z,25.73
2019-04-26T01:41:57.300Z,31.77
2019-04-26T01:44:44.547Z,28.83
2019-04-26T01:47:12.960Z,34.87
2019-04-26T01:49:40.851Z,29.03
2019-04-26T01:52:11.257Z,29.47
2019-04-26T01:54:41.496Z,30.27
2019-04-26T01:57:09.989Z,28.20
2019-04-26T01:59:42.759Z,31.73
2019-04-26T02:02:42.266Z,31.33
2019-04-26T02:05:15.058Z,28.80
2019-04-26T02:07:43.149Z,29.47
2019-04-26T02:10:13.700Z,30.47
2019-04-26T02:12:47.085Z,29.70
2019-04-26T02:15:18.282Z,32.53
2019-04-26T02:17:48.225Z,29.53
2019-04-26T02:20:54.818Z,31.27
2019-04-26T02:23:54.468Z,30.40
2019-04-26T02:26:36.694Z,31.17
2019-04-26T02:29:08.438Z,33.30
2019-04-26T02:31:39.415Z,31.40
2019-04-26T02:34:07.988Z,35.60
2019-04-26T02:36:55.139Z,34.60
2019-04-26T02:39:16.904Z,36.87
2019-04-26T02:41:46.923Z,30.77
2019-04-26T02:44:16.831Z,38.10
2019-04-26T02:46:56.010Z,30.00
2019-04-26T02:49:51.594Z,32.70
2019-04-26T02:52:41.506Z,30.07
2019-04-26T02:55:15.109Z,34.47
2019-04-26T02:57:50.101Z,30.87
2019-04-26T03:00:19.676Z,31.20
2019-04-26T03:03:01.230Z,32.00
2019-04-26T03:05:33.701Z,31.97
2019-04-26T03:08:07.977Z,31.13
2019-04-26T03:10:41.270Z,30.83
2019-04-26T03:13:19.973Z,29.00
2019-04-26T03:16:08.460Z,32.00
2019-04-26T03:19:06.947Z,34.00
2019-04-26T03:21:46.505Z,32.07
2019-04-26T03:24:26.399Z,34.73
2019-04-26T03:27:32.705Z,29.97
2019-04-26T03:30:19.980Z,30.50
2019-04-26T03:33:17.593Z,28.80
2019-04-26T03:36:18.220Z,32.77
2019-04-26T03:38:56.381Z,28.47
2019-04-26T03:41:42.858Z,30.70
2019-04-26T03:44:22.470Z,30.47
2019-04-26T03:47:03.378Z,30.80
2019-04-26T03:50:19.083Z,31.53
2019-04-26T03:53:20.758Z,33.23
2019-04-26T03:56:51.169Z,32.27
2019-04-26T03:59:59.402Z,30.77
2019-04-26T04:02:56.961Z,31.17
2019-04-26T04:05:43.562Z,30.77
2019-04-26T04:08:16.223Z,32.00
2019-04-26T04:10:57.020Z,33.70
2019-04-26T04:13:45.697Z,29.57
2019-04-26T04:16:50.086Z,31.17
2019-04-26T04:19:58.663Z,29.97
2019-04-26T04:22:31.032Z,31.20
2019-04-26T04:25:02.956Z,29.13
2019-04-26T04:27:39.447Z,29.87
2019-04-26T04:30:49.292Z,29.93
2019-04-26T04:33:59.334Z,31.50
2019-04-26T04:36:35.230Z,29.90
2019-04-26T04:39:32.901Z,31.43
2019-04-26T04:42:28.514Z,30.87
2019-04-26T04:45:29.443Z,32.83
2019-04-26T04:48:19.987Z,31.63
2019-04-26T04:50:58.495Z,29.33
2019-04-26T04:53:51.724Z,29.07
2019-04-26T04:57:09.024Z,26.57
2019-04-26T05:00:33.799Z,25.73
2019-04-26T05:03:26.552Z,29.90
2019-04-26T05:06:21.813Z,28.47
2019-04-26T05:09:06.025Z,25.33
2019-04-26T05:11:45.852Z,27.40
2019-04-26T05:14:29.607Z,25.80
2019-04-26T05:17:31.247Z,28.40
2019-04-26T05:20:29.949Z,29.30
2019-04-26T05:23:48.969Z,27.80
2019-04-26T05:27:46.764Z,31.47
2019-04-26T05:30:54.251Z,27.80
2019-04-26T05:33:35.082Z,27.43
2019-04-26T05:36:48.784Z,28.80
2019-04-26T05:39:28.148Z,28.37
2019-04-26T05:42:31.788Z,27.47
2019-04-26T05:45:47.027Z,26.97
2019-04-26T05:49:04.625Z,25.60
2019-04-26T05:52:14.251Z,27.13
2019-04-26T05:55:04.263Z,26.80
2019-04-26T05:58:00.246Z,27.43
2019-04-26T06:01:41.319Z,31.70
2019-04-26T06:04:34.980Z,31.33
2019-04-26T06:07:32.099Z,29.33
2019-04-26T06:10:40.211Z,28.97
2019-04-26T06:13:41.431Z,31.17
2019-04-26T06:16:26.843Z,29.17
2019-04-26T06:19:17.533Z,34.20
2019-04-26T06:22:14.419Z,30.23
2019-04-26T06:25:25.704Z,31.37
2019-04-26T06:28:06.025Z,30.17
2019-04-26T06:30:45.564Z,28.93
2019-04-26T06:33:55.027Z,35.17
2019-04-26T06:36:32.718Z,32.53
2019-04-26T06:39:27.953Z,28.80
2019-04-26T06:42:13.989Z,40.23
2019-04-26T06:45:51.325Z,32.20
2019-04-26T06:48:30.861Z,32.83
2019-04-26T06:51:24.536Z,31.47
2019-04-26T06:54:16.034Z,31.27
2019-04-26T06:57:29.745Z,35.53
2019-04-26T07:00:23.079Z,33.73
2019-04-26T07:03:22.852Z,32.73
2019-04-26T07:06:00.404Z,31.70
2019-04-26T07:08:57.330Z,31.67
2019-04-26T07:12:00.781Z,30.67
2019-04-26T07:14:57.169Z,31.60
2019-04-26T07:18:00.923Z,29.80
2019-04-26T07:20:41.231Z,28.07
2019-04-26T07:24:14.954Z,29.87
2019-04-26T07:27:13.792Z,27.07
2019-04-26T07:30:04.058Z,32.80
2019-04-26T07:33:23.086Z,27.43
2019-04-26T07:36:15.732Z,28.60
2019-04-26T07:39:36.229Z,30.60
2019-04-26T07:42:47.666Z,27.23
2019-04-26T07:46:18.981Z,28.50
2019-04-26T07:49:39.579Z,28.40
2019-04-26T07:52:43.884Z,27.47
2019-04-26T07:55:44.581Z,29.70
2019-04-26T07:58:48.522Z,27.70
2019-04-26T08:01:52.094Z,29.33
2019-04-26T08:04:29.547Z,30.33
2019-04-26T08:07:08.226Z,29.53
2019-04-26T08:09:39.764Z,27.57
2019-04-26T08:12:10.500Z,24.83
2019-04-26T08:15:28.778Z,30.93
2019-04-26T08:18:11.744Z,28.93
2019-04-26T08:20:54.429Z,25.97
2019-04-26T08:23:39.496Z,24.27
2019-04-26T08:26:03.635Z,26.50
2019-04-26T08:28:35.706Z,28.17
2019-04-26T08:31:07.515Z,26.03
2019-04-26T08:33:48.583Z,26.13
2019-04-26T08:36:14.820Z,27.63
2019-04-26T08:38:44.322Z,25.07
2019-04-26T08:41:14.052Z,28.50
2019-04-26T08:43:59.693Z,25.23
2019-04-26T08:46:57.502Z,31.73
2019-04-26T08:49:39.145Z,22.60
2019-04-26T08:52:14.397Z,25.17
2019-04-26T08:54:45.749Z,24.80
2019-04-26T08:57:15.527Z,23.47
2019-04-26T08:59:51.052Z,27.47
2019-04-26T09:02:40.554Z,25.73
2019-04-26T09:05:18.179Z,21.70
2019-04-26T09:07:48.601Z,23.90
2019-04-26T09:10:18.406Z,25.63
2019-04-26T09:12:49.847Z,23.50
2019-04-26T09:15:25.319Z,20.90
2019-04-26T09:17:53.112Z,21.53
2019-04-26T09:20:28.616Z,23.90
2019-04-26T09:23:21.687Z,26.57
2019-04-26T09:25:59.106Z,22.83
2019-04-26T09:28:49.299Z,23.60
2019-04-26T09:31:32.459Z,19.90
2019-04-26T09:34:06.407Z,22.00
2019-04-26T09:36:33.203Z,23.70
2019-04-26T09:39:03.958Z,21.73
2019-04-26T09:41:32.162Z,22.70
2019-04-26T09:44:05.671Z,22.83
2019-04-26T09:47:10.847Z,24.70
2019-04-26T09:50:05.284Z,22.00
2019-04-26T09:52:39.334Z,24.83
2019-04-26T09:55:07.224Z,23.07
2019-04-26T09:57:35.051Z,23.27
2019-04-26T10:00:05.680Z,22.27
2019-04-26T10:02:35.339Z,18.90
2019-04-26T10:05:03.855Z,20.73
2019-04-26T10:07:33.401Z,18.40
2019-04-26T10:10:01.426Z,22.53
2019-04-26T10:12:35.615Z,20.60
2019-04-26T10:15:22.371Z,19.80
2019-04-26T10:17:51.787Z,21.10
2019-04-26T10:20:20.066Z,17.00
2019-04-26T10:22:48.052Z,17.87
2019-04-26T10:25:16.959Z,16.17
2019-04-26T10:27:45.107Z,20.77
2019-04-26T10:30:15.783Z,17.90
2019-04-26T10:32:43.659Z,16.10
2019-04-26T10:35:11.722Z,18.13
2019-04-26T10:37:39.989Z,23.93
2019-04-26T10:40:09.527Z,20.40
2019-04-26T10:42:37.506Z,19.47
2019-04-26T10:45:10.411Z,21.03
2019-04-26T10:47:38.405Z,16.20
2019-04-26T10:50:06.900Z,19.17
2019-04-26T10:53:00.015Z,19.47
2019-04-26T10:55:50.159Z,17.90
2019-04-26T10:58:21.270Z,16.43
2019-04-26T11:00:52.740Z,16.80
2019-04-26T11:03:21.676Z,18.20
2019-04-26T11:05:53.794Z,18.80
2019-04-26T11:08:21.609Z,18.73
2019-04-26T11:10:49.394Z,17.97
2019-04-26T11:13:17.448Z,15.43
2019-04-26T11:15:45.765Z,13.97
2019-04-26T11:18:13.588Z,15.90
2019-04-26T11:20:45.392Z,15.17
2019-04-26T11:23:11.831Z,15.73
2019-04-26T11:25:40.685Z,15.90
2019-04-26T11:28:08.696Z,15.00
2019-04-26T11:30:36.595Z,16.13
2019-04-26T11:33:07.272Z,17.43
2019-04-26T11:35:34.839Z,15.70
2019-04-26T11:38:02.886Z,17.50
2019-04-26T11:40:30.832Z,16.73
2019-04-26T11:42:58.699Z,12.40
2019-04-26T11:45:27.755Z,16.50
2019-04-26T11:47:56.596Z,16.47
2019-04-26T11:50:24.833Z,15.90
2019-04-26T11:52:53.053Z,15.63
2019-04-26T11:55:20.961Z,20.30
2019-04-26T11:57:49.223Z,16.20
2019-04-26T12:00:31.160Z,14.87
2019-04-26T12:02:59.072Z,14.20
2019-04-26T12:05:34.309Z,11.47
2019-04-26T12:08:05.808Z,15.60
2019-04-26T12:10:33.615Z,11.97
2019-04-26T12:13:06.009Z,14.43
2019-04-26T12:15:31.494Z,13.20
2019-04-26T12:17:59.342Z,16.63
2019-04-26T12:20:28.427Z,12.93
2019-04-26T12:22:56.509Z,17.97
2019-04-26T12:25:24.477Z,17.30
2019-04-26T12:27:53.611Z,16.07
2019-04-26T12:30:24.969Z,16.90
2019-04-26T12:32:51.379Z,12.80
2019-04-26T12:35:19.446Z,12.83
2019-04-26T12:37:50.729Z,14.20
2019-04-26T12:40:19.415Z,14.47
2019-04-26T12:42:47.590Z,13.23
2019-04-26T12:45:37.202Z,18.77
2019-04-26T12:48:08.106Z,17.87
2019-04-26T12:50:37.731Z,15.07
2019-04-26T12:53:05.749Z,16.30
2019-04-26T12:55:33.907Z,15.37
2019-04-26T12:58:01.727Z,17.57
2019-04-26T13:00:32.965Z,17.33
2019-04-26T13:03:01.427Z,15.17
2019-04-26T13:05:29.280Z,17.73
2019-04-26T13:07:57.165Z,15.50
2019-04-26T13:10:47.490Z,21.73
2019-04-26T13:13:20.118Z,15.20
2019-04-26T13:16:17.141Z,18.60
2019-04-26T13:18:46.952Z,15.20
2019-04-26T13:21:15.059Z,16.93
2019-04-26T13:23:43.024Z,17.27
2019-04-26T13:26:10.892Z,16.33
2019-04-26T13:28:38.906Z,17.43
2019-04-26T13:31:06.928Z,19.93
2019-04-26T13:33:34.778Z,19.13
2019-04-26T13:36:03.285Z,16.53
2019-04-26T13:38:31.579Z,15.53
2019-04-26T13:41:04.295Z,19.10
2019-04-26T13:43:29.307Z,14.17
2019-04-26T13:46:22.296Z,17.10
2019-04-26T13:49:00.054Z,15.70
2019-04-26T13:51:29.593Z,15.13
2019-04-26T13:53:57.448Z,15.97
2019-04-26T13:56:25.293Z,13.97
2019-04-26T13:58:54.318Z,18.93
2019-04-26T14:01:22.861Z,22.43
2019-04-26T14:03:50.936Z,17.27
2019-04-26T14:06:18.837Z,21.93
2019-04-26T14:08:46.844Z,17.30
2019-04-26T14:11:14.772Z,14.67
2019-04-26T14:13:42.763Z,19.10
2019-04-26T14:16:10.981Z,14.33
2019-04-26T14:18:40.574Z,17.37
2019-04-26T14:21:08.530Z,14.60
2019-04-26T14:23:45.358Z,18.37
2019-04-26T14:26:16.301Z,20.30
2019-04-26T14:28:44.231Z,16.40
2019-04-26T14:31:16.062Z,17.10
2019-04-26T14:33:41.957Z,16.60
2019-04-26T14:36:17.615Z,14.87
2019-04-26T14:38:41.413Z,18.33
2019-04-26T14:41:13.062Z,13.40
2019-04-26T14:43:40.837Z,14.73
2019-04-26T14:46:10.470Z,18.37
2019-04-26T14:48:40.492Z,17.33
2019-04-26T14:51:12.409Z,13.03
2019-04-26T14:53:39.220Z,13.67
2019-04-26T14:56:07.027Z,15.27
2019-04-26T14:58:34.866Z,13.50
2019-04-26T15:01:04.109Z,19.87
2019-04-26T15:03:39.179Z,13.80
2019-04-26T15:06:20.521Z,15.90
2019-04-26T15:08:48.957Z,16.97
2019-04-26T15:11:16.834Z,13.87
2019-04-26T15:13:44.764Z,13.67
2019-04-26T15:16:14.341Z,17.70
2019-04-26T15:18:42.695Z,16.50
2019-04-26T15:21:12.720Z,13.47
2019-04-26T15:23:40.488Z,16.37
2019-04-26T15:26:08.421Z,12.80
2019-04-26T15:28:36.387Z,16.00
2019-04-26T15:31:04.297Z,16.80
2019-04-26T15:33:32.547Z,16.47
2019-04-26T15:36:02.278Z,19.93
2019-04-26T15:38:35.233Z,13.33
2019-04-26T15:41:24.613Z,16.47
2019-04-26T15:43:59.857Z,17.93
2019-04-26T15:46:50.265Z,20.83
2019-04-26T15:49:49.531Z,15.07
2019-04-26T15:52:17.569Z,12.87
2019-04-26T15:54:45.630Z,19.00
2019-04-26T15:57:13.555Z,14.57
2019-04-26T15:59:43.059Z,15.93
2019-04-26T16:02:12.399Z,14.47
2019-04-26T16:04:42.268Z,15.77
2019-04-26T16:07:15.476Z,17.63
2019-04-26T16:09:43.695Z,18.40
2019-04-26T16:12:13.416Z,15.03
2019-04-26T16:14:42.294Z,21.00
2019-04-26T16:17:10.295Z,14.07
2019-04-26T16:19:38.547Z,16.47
2019-04-26T16:22:06.532Z,16.23
2019-04-26T16:24:34.657Z,20.67
2019-04-26T16:27:02.955Z,15.43
2019-04-26T16:29:50.942Z,15.37
2019-04-26T16:32:47.500Z,15.47
2019-04-26T16:35:18.169Z,19.97
2019-04-26T16:37:45.228Z,19.33
2019-04-26T16:40:13.937Z,18.57
2019-04-26T16:42:42.147Z,13.17
2019-04-26T16:45:10.369Z,22.77
2019-04-26T16:47:44.945Z,19.30
2019-04-26T16:50:14.831Z,17.83
2019-04-26T16:52:43.569Z,15.37
2019-04-26T16:55:17.751Z,13.00
2019-04-26T16:57:44.022Z,11.43
2019-04-26T17:00:15.792Z,16.63
2019-04-26T17:02:43.842Z,16.00
2019-04-26T17:05:17.531Z,17.23
2019-04-26T17:07:45.723Z,15.30
2019-04-26T17:10:12.126Z,16.93
2019-04-26T17:12:42.201Z,15.43
2019-04-26T17:15:10.107Z,12.27
2019-04-26T17:17:41.225Z,19.77
2019-04-26T17:20:10.813Z,14.33
2019-04-26T17:22:59.520Z,13.63
2019-04-26T17:25:45.110Z,13.83
2019-04-26T17:28:14.040Z,14.93
2019-04-26T17:30:44.445Z,19.43
2019-04-26T17:33:13.107Z,17.67
2019-04-26T17:35:42.049Z,18.63
2019-04-26T17:38:11.498Z,15.27
2019-04-26T17:40:41.139Z,15.77
2019-04-26T17:43:09.778Z,17.67
2019-04-26T17:45:42.499Z,13.87
2019-04-26T17:48:11.703Z,13.53
2019-04-26T17:50:39.043Z,12.00
2019-04-26T17:53:10.622Z,14.70
2019-04-26T17:55:37.906Z,13.80
2019-04-26T17:58:12.019Z,13.37
2019-04-26T18:00:45.564Z,15.63
2019-04-26T18:03:07.600Z,15.93
2019-04-26T18:05:50.050Z,13.53
2019-04-26T18:08:31.351Z,15.87
2019-04-26T18:10:35.492Z,17.23
2019-04-26T18:13:04.294Z,16.53
2019-04-26T18:15:33.264Z,16.27
2019-04-26T18:18:30.087Z,13.80
2019-04-26T18:21:19.064Z,15.03
2019-04-26T18:23:48.769Z,12.67
2019-04-26T18:26:17.463Z,17.50
2019-04-26T18:28:51.552Z,16.33
2019-04-26T18:31:17.891Z,18.37
2019-04-26T18:33:45.030Z,13.73
2019-04-26T18:36:13.185Z,12.60
2019-04-26T18:38:43.179Z,13.50
2019-04-26T18:41:11.047Z,14.30
2019-04-26T18:43:39.481Z,15.33
2019-04-26T18:46:13.827Z,15.87
2019-04-26T18:48:42.557Z,13.60
2019-04-26T18:51:12.218Z,15.03
2019-04-26T18:53:58.448Z,15.17
2019-04-26T18:56:26.772Z,13.30
2019-04-26T18:58:55.888Z,22.57
2019-04-26T19:01:23.891Z,12.23
2019-04-26T19:03:51.679Z,12.83
2019-04-26T19:06:31.146Z,13.47
2019-04-26T19:08:52.242Z,12.73
2019-04-26T19:11:19.477Z,13.93
2019-04-26T19:14:12.967Z,11.93
2019-04-26T19:16:46.377Z,14.00
2019-04-26T19:19:24.253Z,11.57
2019-04-26T19:21:54.793Z,13.33
2019-04-26T19:24:23.050Z,16.77
2019-04-26T19:26:51.468Z,12.77
2019-04-26T19:29:27.405Z,16.83
2019-04-26T19:31:49.787Z,14.60
2019-04-26T19:34:18.125Z,11.17
2019-04-26T19:36:48.210Z,13.53
2019-04-26T19:39:20.229Z,16.13
2019-04-26T19:41:46.442Z,15.13
2019-04-26T19:44:14.779Z,12.63
2019-04-26T19:47:07.018Z,16.13
2019-04-26T19:50:03.060Z,12.97
2019-04-26T19:52:46.140Z,17.77
2019-04-26T19:55:47.407Z,14.93
2019-04-26T19:58:20.162Z,16.13
2019-04-26T20:00:46.782Z,16.13
2019-04-26T20:03:16.714Z,11.10
2019-04-26T20:05:44.414Z,11.40
2019-04-26T20:08:12.259Z,18.30
2019-04-26T20:10:43.245Z,14.00
2019-04-26T20:13:15.198Z,16.20
2019-04-26T20:15:39.566Z,16.00
2019-04-26T20:18:07.419Z,16.77
2019-04-26T20:20:36.329Z,17.10
2019-04-26T20:23:07.811Z,12.43
2019-04-26T20:25:33.963Z,13.17
2019-04-26T20:28:03.138Z,16.60
2019-04-26T20:30:53.292Z,13.63
2019-04-26T20:33:22.395Z,18.67
2019-04-26T20:35:51.495Z,15.43
2019-04-26T20:38:19.577Z,15.67
2019-04-26T20:40:47.669Z,17.77
2019-04-26T20:43:24.366Z,20.33
2019-04-26T20:46:07.645Z,17.37
2019-04-26T20:48:17.219Z,19.10
2019-04-26T20:50:45.103Z,16.40
2019-04-26T20:53:12.924Z,13.27
2019-04-26T20:55:42.631Z,15.77
2019-04-26T20:58:11.791Z,16.37
2019-04-26T21:00:39.872Z,17.50
2019-04-26T21:03:20.186Z,17.07
2019-04-26T21:05:46.352Z,17.27
2019-04-26T21:08:07.087Z,17.40
2019-04-26T21:10:36.049Z,19.90
2019-04-26T21:13:04.062Z,16.10
2019-04-26T21:15:32.304Z,16.93
2019-04-26T21:18:02.726Z,17.40
2019-04-26T21:20:34.498Z,18.23
2019-04-26T21:23:02.378Z,19.10
2019-04-26T21:25:54.349Z,19.63
2019-04-26T21:28:42.743Z,20.70
2019-04-26T21:31:36.098Z,22.87
2019-04-26T21:34:12.552Z,20.27
2019-04-26T21:37:06.627Z,20.63
2019-04-26T21:39:39.438Z,22.37
2019-04-26T21:42:09.410Z,20.20
2019-04-26T21:44:37.298Z,17.33
2019-04-26T21:47:05.150Z,23.03
2019-04-26T21:49:35.733Z,19.93
2019-04-26T21:52:02.829Z,21.27
2019-04-26T21:54:30.668Z,19.33
2019-04-26T21:56:58.557Z,16.80
2019-04-26T21:59:26.426Z,20.10
2019-04-26T22:01:59.111Z,24.73
2019-04-26T22:04:24.476Z,19.37
2019-04-26T22:06:53.483Z,18.23
2019-04-26T22:09:40.577Z,17.40
2019-04-26T22:12:13.074Z,19.37
2019-04-26T22:14:43.085Z,22.13
2019-04-26T22:17:14.598Z,19.40
2019-04-26T22:19:47.411Z,21.63
2019-04-26T22:22:41.322Z,19.83
2019-04-26T22:25:08.890Z,19.93
2019-04-26T22:27:36.827Z,20.07
2019-04-26T22:30:09.129Z,21.27
2019-04-26T22:32:36.958Z,19.47
2019-04-26T22:35:05.097Z,21.37
2019-04-26T22:37:33.724Z,24.67
2019-04-26T22:40:03.562Z,21.90
2019-04-26T22:42:39.877Z,20.60
2019-04-26T22:45:28.437Z,20.53
2019-04-26T22:48:03.284Z,21.03
2019-04-26T22:50:31.290Z,21.50
2019-04-26T22:52:59.074Z,20.80
2019-04-26T22:55:27.478Z,24.97
2019-04-26T22:57:55.595Z,21.97
2019-04-26T23:00:29.342Z,21.67
2019-04-26T23:02:58.239Z,23.93
2019-04-26T23:05:24.710Z,21.80
2019-04-26T23:07:54.775Z,27.10
2019-04-26T23:10:31.012Z,21.00
2019-04-26T23:13:09.594Z,25.30
2019-04-26T23:16:08.245Z,24.47
2019-04-26T23:18:43.843Z,24.13
2019-04-26T23:21:31.820Z,21.17
2019-04-26T23:23:59.620Z,22.03
2019-04-26T23:26:27.474Z,19.87
2019-04-26T23:28:55.272Z,25.73
2019-04-26T23:31:23.730Z,25.40
2019-04-26T23:33:51.603Z,21.13
2019-04-26T23:36:19.676Z,21.43
2019-04-26T23:38:47.538Z,21.13
2019-04-26T23:41:15.353Z,26.10
2019-04-26T23:43:44.142Z,24.00
2019-04-26T23:46:14.307Z,24.23
2019-04-26T23:48:46.010Z,23.93
2019-04-26T23:51:11.346Z,21.63
2019-04-26T23:53:39.168Z,23.17
2019-04-26T23:56:06.906Z,24.10
2019-04-26T23:58:34.753Z,19.73
